Time;durP1;ratioP1;P1;durP2;ratioP2;P2;SDS_P1;SDS_P2;PMS_P1;PMS_P2;Temp;Humidity;BMP_temperature;BMP_pressure;BME280_temperature;BME280_humidity;BME280_pressure;Samples;Min_cycle;Max_cycle;Signal;HPM_P1;HPM_P2
2022/08/28 00:01:50;;;;;;;8.40;6.35;;;;;;;20.89;99.34;100299.50;4934350;29;20142;-87
2022/08/28 00:04:15;;;;;;;9.73;6.45;;;;;;;20.90;99.27;100295.00;4934320;29;20149;-88
2022/08/28 00:06:41;;;;;;;8.63;6.13;;;;;;;20.88;99.31;100306.63;4933916;29;20157;-90
2022/08/28 00:09:07;;;;;;;7.65;5.57;;;;;;;20.85;99.21;100308.88;4932958;28;20098;-88
2022/08/28 00:11:36;;;;;;;6.35;5.65;;;;;;;20.85;99.52;100301.75;4947409;28;20406;-88
2022/08/28 00:14:12;;;;;;;9.73;6.63;;;;;;;20.84;99.60;100307.25;4948312;28;20059;-89
2022/08/28 00:17:01;;;;;;;8.32;6.00;;;;;;;20.81;99.25;100305.84;4934441;29;20035;-89
2022/08/28 00:19:29;;;;;;;7.47;5.95;;;;;;;20.79;99.48;100304.47;4949740;28;20138;-91
2022/08/28 00:21:55;;;;;;;8.60;5.68;;;;;;;20.80;99.57;100306.88;4962390;28;20046;-87
2022/08/28 00:24:35;;;;;;;10.35;6.10;;;;;;;20.75;99.01;100301.44;4969283;28;20035;-88
2022/08/28 00:29:49;;;;;;;9.40;5.00;;;;;;;20.63;100.00;100300.50;4961124;28;20102;-89
2022/08/28 00:32:15;;;;;;;6.97;4.85;;;;;;;20.64;100.00;100302.13;4934795;28;20035;-89
2022/08/28 00:34:43;;;;;;;6.15;5.45;;;;;;;20.65;100.00;100297.66;4956120;28;20027;-89
2022/08/28 00:37:32;;;;;;;8.02;5.80;;;;;;;20.68;100.00;100300.69;4973470;28;20601;-88
2022/08/28 00:40:07;;;;;;;8.85;6.30;;;;;;;20.68;100.00;100290.09;4943433;28;20050;-88
2022/08/28 00:42:48;;;;;;;7.57;5.57;;;;;;;20.69;99.94;100294.34;4969826;28;20182;-89
2022/08/28 00:45:24;;;;;;;8.60;5.50;;;;;;;20.70;99.49;100288.03;4954919;28;20041;-91
2022/08/28 00:47:55;;;;;;;7.85;5.50;;;;;;;20.73;99.90;100295.56;4973430;28;20418;-88
2022/08/28 00:53:29;;;;;;;10.05;7.03;;;;;;;20.71;100.00;100302.91;4974326;28;20057;-89
2022/08/28 00:55:57;;;;;;;8.57;5.72;;;;;;;20.71;100.00;100294.97;4957037;28;20035;-87
2022/08/28 00:58:25;;;;;;;11.30;6.32;;;;;;;20.69;99.92;100296.19;4956952;28;20069;-87
2022/08/28 01:00:54;;;;;;;8.50;5.93;;;;;;;20.68;100.00;100308.63;4966252;28;20034;-87
2022/08/28 01:03:20;;;;;;;10.68;6.43;;;;;;;20.66;100.00;100299.28;4973055;28;20038;-87
2022/08/28 01:05:48;;;;;;;9.77;6.38;;;;;;;20.64;100.00;100303.97;4990996;28;20338;-88
2022/08/28 01:08:14;;;;;;;8.90;6.10;;;;;;;20.65;100.00;100303.75;4973026;28;20090;-88
2022/08/28 01:10:44;;;;;;;7.20;5.88;;;;;;;20.66;100.00;100307.22;4971202;28;20030;-87
2022/08/28 01:13:31;;;;;;;8.27;5.88;;;;;;;20.65;100.00;100306.41;4973155;28;20125;-88
2022/08/28 01:15:57;;;;;;;10.77;6.82;;;;;;;20.68;100.00;100311.25;4970474;28;20434;-87
2022/08/28 01:18:51;;;;;;;12.00;8.40;;;;;;;20.72;100.00;100312.47;4972754;28;20121;-88
2022/08/28 01:21:28;;;;;;;9.77;8.00;;;;;;;20.76;100.00;100310.19;4947531;28;20046;-89
2022/08/28 01:27:46;;;;;;;12.68;8.75;;;;;;;20.71;100.00;100308.19;4978560;28;20096;-89
2022/08/28 01:30:15;;;;;;;9.60;6.78;;;;;;;20.73;100.00;100306.16;4970475;28;20030;-89
2022/08/28 01:32:46;;;;;;;7.75;6.53;;;;;;;20.70;100.00;100295.97;4972843;28;20038;-89
2022/08/28 01:35:39;;;;;;;10.40;5.70;;;;;;;20.61;100.00;100299.91;4972484;28;20049;-90
2022/08/28 01:38:11;;;;;;;9.85;6.32;;;;;;;20.58;100.00;100296.88;4971223;28;20100;-89
2022/08/28 01:40:40;;;;;;;12.18;6.05;;;;;;;20.61;100.00;100302.56;4970163;28;20439;-88
2022/08/28 01:43:26;;;;;;;8.55;6.32;;;;;;;20.61;100.00;100299.91;4969022;28;20129;-89
2022/08/28 01:49:43;;;;;;;12.20;5.78;;;;;;;20.48;100.00;100305.28;4978751;28;20486;-88
2022/08/28 01:52:09;;;;;;;9.98;6.00;;;;;;;20.48;100.00;100292.84;4969669;28;20054;-86
2022/08/28 01:54:38;;;;;;;8.15;6.45;;;;;;;20.51;100.00;100296.91;4988236;28;20104;-88
2022/08/28 01:57:04;;;;;;;7.57;6.05;;;;;;;20.53;100.00;100300.97;4989730;28;20077;-88
2022/08/28 01:59:30;;;;;;;10.52;6.45;;;;;;;20.56;100.00;100299.72;4984179;28;20029;-88
2022/08/28 02:01:55;;;;;;;10.50;6.22;;;;;;;20.56;100.00;100297.09;4968355;28;20026;-88
2022/08/28 02:04:21;;;;;;;10.52;7.35;;;;;;;20.59;100.00;100296.66;4966817;28;20038;-88
2022/08/28 02:06:46;;;;;;;20.85;7.03;;;;;;;20.62;100.00;100290.13;4971783;28;20048;-87
2022/08/28 02:09:12;;;;;;;8.27;5.80;;;;;;;20.63;100.00;100289.09;4988859;28;20027;-88
2022/08/28 02:11:40;;;;;;;10.02;6.70;;;;;;;20.63;100.00;100297.03;4989377;28;20486;-88
2022/08/28 02:14:05;;;;;;;9.68;7.30;;;;;;;20.65;100.00;100293.16;4953618;28;20034;-90
2022/08/28 02:16:31;;;;;;;7.03;6.03;;;;;;;20.66;100.00;100293.97;4971596;28;20045;-90
2022/08/28 02:18:56;;;;;;;8.73;5.68;;;;;;;20.65;100.00;100287.06;4989637;28;20065;-88
2022/08/28 02:21:22;;;;;;;9.55;5.68;;;;;;;20.65;100.00;100293.16;4971533;28;20036;-88
2022/08/28 02:23:47;;;;;;;8.27;5.78;;;;;;;20.65;100.00;100287.06;4970402;28;20057;-89
2022/08/28 02:26:13;;;;;;;8.85;5.45;;;;;;;20.63;100.00;100289.91;4987023;28;20038;-89
2022/08/28 02:28:40;;;;;;;8.35;5.50;;;;;;;20.65;100.00;100287.06;4971271;28;20022;-90
2022/08/28 02:31:08;;;;;;;10.05;6.85;;;;;;;20.65;100.00;100284.41;4964962;28;20026;-88
2022/08/28 02:33:47;;;;;;;8.77;6.13;;;;;;;20.71;100.00;100289.66;4966842;28;20050;-90
2022/08/28 02:36:14;;;;;;;13.85;7.05;;;;;;;20.75;100.00;100282.91;4987474;28;20046;-89
2022/08/28 02:38:40;;;;;;;7.38;6.65;;;;;;;20.78;100.00;100282.47;4970798;28;20085;-88
2022/08/28 02:41:06;;;;;;;13.15;7.05;;;;;;;20.83;100.00;100281.81;4970068;28;20054;-88
2022/08/28 02:43:32;;;;;;;14.32;7.65;;;;;;;20.87;99.69;100289.09;4987349;28;20116;-88
2022/08/28 02:46:01;;;;;;;9.85;6.97;;;;;;;20.85;99.54;100293.81;4987980;28;20042;-89
2022/08/28 02:48:31;;;;;;;9.05;6.53;;;;;;;20.84;99.82;100294.84;4970315;28;20022;-88
2022/08/28 02:50:59;;;;;;;11.35;6.43;;;;;;;20.83;99.78;100297.69;4971268;28;20076;-89
2022/08/28 02:53:25;;;;;;;12.00;6.55;;;;;;;20.85;99.84;100288.50;4953069;28;20035;-87
2022/08/28 02:55:50;;;;;;;11.35;5.97;;;;;;;20.84;100.00;100284.25;4965942;28;20485;-89
2022/08/28 02:58:16;;;;;;;13.02;6.82;;;;;;;20.83;100.00;100281.81;4970911;28;20034;-88
2022/08/28 03:00:42;;;;;;;12.43;7.15;;;;;;;20.79;100.00;100275.34;4985367;28;20034;-88
2022/08/28 03:03:08;;;;;;;12.98;6.65;;;;;;;20.76;100.00;100279.25;4969682;28;20033;-88
2022/08/28 03:05:41;;;;;;;11.65;7.07;;;;;;;20.77;100.00;100275.56;4969433;28;20034;-88
2022/08/28 03:08:07;;;;;;;16.30;7.00;;;;;;;20.78;100.00;100282.47;4969840;28;20027;-88
2022/08/28 03:10:35;;;;;;;10.55;7.72;;;;;;;20.79;100.00;100284.09;4987101;28;20044;-86
2022/08/28 03:15:57;;;;;;;12.50;9.07;;;;;;;20.85;100.00;100290.34;5194656;22;20073;-64
2022/08/28 03:18:25;;;;;;;8.75;7.90;;;;;;;20.85;100.00;100288.50;5028340;28;20025;-63
2022/08/28 03:20:51;;;;;;;9.57;6.88;;;;;;;20.81;100.00;100300.56;5027321;28;20061;-65
2022/08/28 03:23:25;;;;;;;8.75;5.63;;;;;;;20.74;100.00;100297.19;5028465;28;20480;-65
2022/08/28 03:25:57;;;;;;;10.07;5.83;;;;;;;20.61;100.00;100305.19;5028013;28;20452;-65
2022/08/28 03:28:25;;;;;;;10.32;6.13;;;;;;;20.48;100.00;100305.28;5027759;28;20291;-64
2022/08/28 03:30:51;;;;;;;10.80;5.80;;;;;;;20.42;100.00;100292.91;5028089;28;20087;-64
2022/08/28 03:33:17;;;;;;;7.40;6.55;;;;;;;20.42;100.00;100296.34;5027825;28;20097;-64
2022/08/28 03:35:42;;;;;;;8.10;6.00;;;;;;;20.43;100.00;100294.50;5028142;28;20105;-63
2022/08/28 03:38:10;;;;;;;11.90;6.82;;;;;;;20.45;100.00;100287.19;5027891;28;20057;-65
2022/08/28 03:40:41;;;;;;;11.32;6.57;;;;;;;20.46;100.00;100280.88;5009559;28;20127;-63
2022/08/28 03:43:08;;;;;;;9.00;5.90;;;;;;;20.48;100.00;100286.75;5009897;28;20041;-65
2022/08/28 03:45:33;;;;;;;8.00;6.13;;;;;;;20.49;100.00;100291.03;5027915;28;20037;-63
2022/08/28 03:47:59;;;;;;;7.63;6.82;;;;;;;20.48;100.00;100300.00;5027756;28;20025;-63
2022/08/28 03:50:24;;;;;;;10.68;7.43;;;;;;;20.53;100.00;100302.81;5027886;28;20030;-64
2022/08/28 03:52:50;;;;;;;10.35;7.13;;;;;;;20.61;100.00;100302.56;5027573;28;20045;-65
2022/08/28 03:55:17;;;;;;;12.10;6.38;;;;;;;20.68;100.00;100302.50;5027780;28;20056;-65
2022/08/28 03:57:43;;;;;;;9.48;6.97;;;;;;;20.64;100.00;100311.91;5009929;28;20139;-63
2022/08/28 04:00:12;;;;;;;9.85;6.75;;;;;;;20.52;100.00;100325.81;5027625;28;20473;-63
2022/08/28 04:02:42;;;;;;;9.43;6.32;;;;;;;20.49;100.00;100338.66;5027608;28;20029;-63
2022/08/28 04:05:09;;;;;;;12.20;7.32;;;;;;;20.51;100.00;100349.84;5027517;28;20029;-62
2022/08/28 04:07:35;;;;;;;13.43;7.13;;;;;;;20.61;100.00;100355.50;5027533;28;20045;-64
2022/08/28 04:10:00;;;;;;;8.13;5.03;;;;;;;20.59;100.00;100364.66;5027507;28;20029;-66
2022/08/28 04:12:26;;;;;;;8.50;3.58;;;;;;;20.19;100.00;100384.16;5027597;28;20044;-64
2022/08/28 04:14:51;;;;;;;8.65;4.70;;;;;;;19.85;100.00;100410.88;5024266;28;20049;-63
2022/08/28 04:17:17;;;;;;;13.48;4.28;;;;;;;19.22;100.00;100392.00;5027193;28;20050;-63
2022/08/28 04:19:43;;;;;;;5.85;3.35;;;;;;;18.78;100.00;100380.19;5009577;28;20045;-64
2022/08/28 04:22:09;;;;;;;6.13;3.38;;;;;;;18.56;100.00;100382.13;5009403;28;20032;-66
2022/08/28 04:24:35;;;;;;;3.75;2.28;;;;;;;18.45;100.00;100401.16;5023342;28;20477;-68
2022/08/28 04:27:01;;;;;;;3.97;1.30;;;;;;;18.39;100.00;100411.69;5025979;28;20025;-65
2022/08/28 04:29:26;;;;;;;7.25;1.42;;;;;;;18.30;100.00;100416.31;5026421;28;20157;-64
2022/08/28 04:31:52;;;;;;;2.53;0.68;;;;;;;18.22;100.00;100414.66;5024520;28;20052;-64
2022/08/28 04:34:18;;;;;;;4.43;0.90;;;;;;;18.24;100.00;100411.81;5029529;28;20053;-66
2022/08/28 04:36:44;;;;;;;3.97;1.40;;;;;;;18.20;100.00;100406.13;5030329;28;20366;-63
2022/08/28 04:39:10;;;;;;;4.25;2.55;;;;;;;18.18;100.00;100404.69;5030613;28;20025;-67
2022/08/28 04:41:37;;;;;;;1.77;0.32;;;;;;;18.11;100.00;100409.94;5030865;28;20048;-64
2022/08/28 04:44:03;;;;;;;0.77;0.22;;;;;;;18.03;100.00;100402.16;5012169;28;20025;-66
2022/08/28 04:46:29;;;;;;;0.60;0.20;;;;;;;18.03;100.00;100383.72;5030097;28;20508;-62
2022/08/28 04:48:55;;;;;;;1.58;0.17;;;;;;;18.02;100.00;100386.53;5030819;28;20033;-63
2022/08/28 04:51:21;;;;;;;1.67;0.30;;;;;;;18.04;100.00;100382.72;5030628;28;20095;-62
2022/08/28 04:53:46;;;;;;;1.33;0.30;;;;;;;18.08;100.00;100397.13;5011491;28;20523;-62
2022/08/28 04:56:13;;;;;;;0.50;0.20;;;;;;;18.08;100.00;100389.22;5030152;28;20164;-62
2022/08/28 04:58:41;;;;;;;0.60;0.20;;;;;;;18.06;100.00;100393.88;5029654;28;20029;-62
2022/08/28 05:01:24;;;;;;;0.50;0.22;;;;;;;18.02;100.00;100387.38;5029004;28;20571;-61
2022/08/28 05:03:56;;;;;;;0.60;0.30;;;;;;;18.07;100.00;100392.06;5030636;28;20094;-62
2022/08/28 05:06:25;;;;;;;0.50;0.30;;;;;;;18.07;100.00;100382.31;5030606;28;20033;-62
2022/08/28 05:08:52;;;;;;;4.82;0.47;;;;;;;18.15;100.00;100390.06;5012555;28;20041;-64
2022/08/28 05:11:20;;;;;;;1.17;0.35;;;;;;;18.04;100.00;100390.63;5028294;28;20273;-65
2022/08/28 05:13:47;;;;;;;1.60;0.20;;;;;;;17.96;100.00;100380.22;5028941;28;20489;-66
2022/08/28 05:16:13;;;;;;;1.80;0.40;;;;;;;17.93;100.00;100378.00;4996027;28;20406;-66
2022/08/28 05:18:39;;;;;;;1.15;0.30;;;;;;;17.94;100.00;100390.19;5029877;28;20052;-66
2022/08/28 05:21:14;;;;;;;1.38;0.20;;;;;;;17.92;100.00;100386.94;5028824;28;20083;-67
2022/08/28 05:23:40;;;;;;;5.57;0.60;;;;;;;17.99;100.00;100386.94;5030031;28;20476;-67
2022/08/28 05:26:11;;;;;;;4.72;0.47;;;;;;;18.10;100.00;100389.03;5028364;28;20025;-71
2022/08/28 05:28:38;;;;;;;3.60;0.70;;;;;;;18.15;100.00;100400.63;5028921;28;20038;-67
2022/08/28 05:31:11;;;;;;;2.70;0.60;;;;;;;18.21;100.00;100409.56;5028304;28;20535;-64
2022/08/28 05:33:37;;;;;;;2.30;0.65;;;;;;;18.30;100.00;100418.16;5028022;28;20116;-67
2022/08/28 05:36:05;;;;;;;2.53;0.70;;;;;;;18.37;100.00;100411.88;5027522;28;20396;-67
2022/08/28 05:38:30;;;;;;;4.85;0.70;;;;;;;18.36;100.00;100407.63;5009480;28;20392;-70
2022/08/28 05:40:56;;;;;;;1.70;0.50;;;;;;;18.26;100.00;100393.97;5026615;28;20029;-68
2022/08/28 05:43:23;;;;;;;3.88;0.60;;;;;;;18.18;100.00;100388.88;5012147;28;20698;-66
2022/08/28 05:45:57;;;;;;;2.60;0.52;;;;;;;18.15;100.00;100384.00;5010679;28;20032;-67
2022/08/28 05:48:22;;;;;;;1.30;0.50;;;;;;;18.12;100.00;100390.47;5028392;28;20041;-63
2022/08/28 05:50:48;;;;;;;2.45;0.40;;;;;;;18.13;100.00;100392.09;5028302;28;20041;-62
2022/08/28 05:53:16;;;;;;;4.18;0.63;;;;;;;18.21;100.00;100399.84;5027617;28;20052;-63
2022/08/28 05:55:42;;;;;;;2.92;0.50;;;;;;;18.32;100.00;100400.31;5011565;28;20565;-65
2022/08/28 06:00:52;;;;;;;5.13;0.63;;;;;;;18.43;100.00;100408.44;5029438;28;20511;-63
2022/08/28 06:03:17;;;;;;;5.10;1.23;;;;;;;18.46;100.00;100412.50;5027162;28;20033;-63
2022/08/28 06:05:43;;;;;;;3.30;0.60;;;;;;;18.45;100.00;100422.25;5029276;28;20619;-64
2022/08/28 06:08:08;;;;;;;2.72;1.02;;;;;;;18.41;100.00;100425.50;5011215;28;20069;-65
2022/08/28 06:10:35;;;;;;;3.13;0.88;;;;;;;18.35;100.00;100423.66;5010211;28;20059;-63
2022/08/28 06:13:02;;;;;;;3.38;1.23;;;;;;;18.34;100.00;100424.66;5008709;28;20471;-67
2022/08/28 06:15:28;;;;;;;3.33;1.20;;;;;;;18.39;100.00;100435.44;5010164;28;20435;-64
2022/08/28 06:17:54;;;;;;;3.63;1.85;;;;;;;18.42;100.00;100427.94;5026691;28;20026;-65
2022/08/28 06:20:19;;;;;;;2.85;1.63;;;;;;;18.38;100.00;100431.16;4993340;28;20515;-63
2022/08/28 06:22:48;;;;;;;6.18;2.00;;;;;;;18.37;100.00;100429.53;5008452;28;20056;-65
2022/08/28 06:25:13;;;;;;;4.88;1.08;;;;;;;18.38;100.00;100433.81;5026628;28;20437;-66
2022/08/28 06:27:39;;;;;;;4.25;1.48;;;;;;;18.35;100.00;100426.28;5025578;28;20112;-62
2022/08/28 06:30:05;;;;;;;5.13;1.63;;;;;;;18.35;100.00;100431.56;5027615;28;20037;-64
2022/08/28 06:32:31;;;;;;;3.00;1.58;;;;;;;18.35;100.00;100434.19;5025423;28;20030;-62
2022/08/28 06:34:56;;;;;;;4.22;1.40;;;;;;;18.38;100.00;100434.63;5024873;28;20129;-64
2022/08/28 06:37:22;;;;;;;2.58;1.70;;;;;;;18.45;100.00;100431.97;5027781;28;20038;-63
2022/08/28 06:39:47;;;;;;;2.15;1.05;;;;;;;18.41;100.00;100430.78;5027825;28;20047;-65
2022/08/28 06:42:13;;;;;;;1.60;1.20;;;;;;;18.36;100.00;100433.19;5026747;28;20037;-62
2022/08/28 06:44:38;;;;;;;1.92;1.38;;;;;;;18.35;100.00;100436.84;5004491;28;20079;-61
2022/08/28 06:47:04;;;;;;;2.55;1.35;;;;;;;18.35;100.00;100440.28;5024581;28;20480;-62
2022/08/28 06:49:29;;;;;;;3.55;1.70;;;;;;;18.41;100.00;100442.16;5025750;28;20033;-63
2022/08/28 06:51:55;;;;;;;2.85;2.15;;;;;;;18.46;100.00;100450.25;5026690;28;20106;-61
2022/08/28 06:54:21;;;;;;;4.25;2.38;;;;;;;18.61;100.00;100446.69;5009870;28;20041;-63
2022/08/28 06:56:47;;;;;;;5.28;3.60;;;;;;;18.68;100.00;100448.34;5008349;28;20053;-63
2022/08/28 06:59:13;;;;;;;6.18;3.78;;;;;;;18.75;100.00;100448.38;5026376;28;20061;-61
2022/08/28 07:01:38;;;;;;;4.85;3.78;;;;;;;18.86;100.00;100450.47;5026979;28;20429;-63
2022/08/28 07:04:07;;;;;;;9.88;4.50;;;;;;;18.93;100.00;100445.97;5025642;28;20032;-62
2022/08/28 07:06:36;;;;;;;5.90;4.13;;;;;;;19.00;100.00;100456.56;5022347;28;20087;-64
2022/08/28 07:09:04;;;;;;;5.63;4.43;;;;;;;19.10;100.00;100457.00;5027060;28;20036;-63
2022/08/28 07:11:31;;;;;;;6.20;3.33;;;;;;;19.18;100.00;100454.16;5024936;28;20049;-61
2022/08/28 07:13:58;;;;;;;3.17;1.85;;;;;;;19.15;100.00;100465.13;5023728;28;20037;-64
2022/08/28 07:16:29;;;;;;;2.50;2.00;;;;;;;19.13;100.00;100464.53;5023368;28;20045;-60
2022/08/28 07:18:56;;;;;;;2.78;1.83;;;;;;;19.23;100.00;100467.59;5014125;28;20231;-64
2022/08/28 07:21:21;;;;;;;2.67;2.00;;;;;;;19.29;100.00;100465.97;5006983;28;20037;-61
2022/08/28 07:23:47;;;;;;;7.25;3.30;;;;;;;19.41;100.00;100467.81;5026771;28;20044;-61
2022/08/28 07:26:22;;;;;;;5.38;3.45;;;;;;;19.55;100.00;100471.31;5028154;28;20032;-60
2022/08/28 07:28:49;;;;;;;7.70;5.53;;;;;;;19.63;100.00;100472.94;5002517;28;20194;-63
2022/08/28 07:31:22;;;;;;;9.80;5.65;;;;;;;19.63;100.00;100478.22;5020456;28;20022;-61
2022/08/28 07:33:48;;;;;;;7.00;5.40;;;;;;;19.65;100.00;100476.19;5026945;28;20041;-63
2022/08/28 07:36:20;;;;;;;12.48;7.28;;;;;;;19.74;100.00;100485.53;5024017;28;20022;-61
2022/08/28 07:38:46;;;;;;;8.20;6.90;;;;;;;19.82;100.00;100480.06;5021521;28;20057;-63
2022/08/28 07:41:22;;;;;;;10.73;6.78;;;;;;;19.87;100.00;100482.88;5021562;28;20083;-63
2022/08/28 07:46:32;;;;;;;8.77;5.40;;;;;;;20.05;100.00;100484.91;5023406;28;20040;-64
2022/08/28 07:48:58;;;;;;;6.75;4.88;;;;;;;20.14;100.00;100481.84;5015036;28;20036;-61
2022/08/28 07:51:25;;;;;;;5.40;2.75;;;;;;;20.06;100.00;100484.69;5013153;28;20449;-62
2022/08/28 07:53:52;;;;;;;5.47;3.40;;;;;;;20.01;100.00;100488.97;5005329;28;20026;-61
2022/08/28 07:56:21;;;;;;;7.68;3.17;;;;;;;20.11;100.00;100487.53;5006216;28;20064;-63
2022/08/28 07:58:47;;;;;;;4.07;2.78;;;;;;;20.25;100.00;100492.81;5023103;28;20041;-62
2022/08/28 08:01:15;;;;;;;3.35;2.17;;;;;;;20.36;100.00;100489.50;5011868;28;20088;-61
2022/08/28 08:03:46;;;;;;;4.45;2.42;;;;;;;20.39;100.00;100487.28;5011949;28;20037;-63
2022/08/28 08:06:12;;;;;;;3.00;2.35;;;;;;;20.44;100.00;100492.78;5002977;28;20175;-61
2022/08/28 08:08:38;;;;;;;5.00;2.53;;;;;;;20.55;100.00;100491.31;5022207;28;20489;-61
2022/08/28 08:11:07;;;;;;;3.72;1.98;;;;;;;20.64;100.00;100476.84;5019535;28;20452;-63
2022/08/28 08:13:37;;;;;;;4.80;3.00;;;;;;;20.78;100.00;100483.69;5024592;28;20104;-60
2022/08/28 08:16:05;;;;;;;6.65;3.28;;;;;;;20.89;100.00;100484.84;5010532;28;20451;-59
2022/08/28 08:18:30;;;;;;;5.35;3.33;;;;;;;20.90;100.00;100480.38;4996562;28;20029;-59
2022/08/28 08:20:56;;;;;;;5.97;2.85;;;;;;;20.99;100.00;100487.03;5021248;28;20033;-59
2022/08/28 08:23:22;;;;;;;2.92;2.38;;;;;;;21.08;100.00;100497.19;5029446;28;20104;-59
2022/08/28 08:25:59;;;;;;;5.25;3.15;;;;;;;21.03;100.00;100490.91;5028738;28;20049;-61
2022/08/28 08:28:26;;;;;;;4.60;3.28;;;;;;;21.11;100.00;100491.47;5017695;28;20041;-61
2022/08/28 08:31:10;;;;;;;4.63;3.08;;;;;;;21.03;100.00;100497.00;5004826;28;20421;-60
2022/08/28 08:33:38;;;;;;;4.15;3.38;;;;;;;20.97;100.00;100499.69;5025464;28;20029;-61
2022/08/28 08:36:06;;;;;;;5.40;3.83;;;;;;;20.96;100.00;100501.53;5018100;28;20084;-62
2022/08/28 08:38:33;;;;;;;6.25;4.00;;;;;;;21.00;100.00;100501.91;5028544;28;20535;-60
2022/08/28 08:41:00;;;;;;;5.13;4.13;;;;;;;21.09;100.00;100501.47;5030773;28;20366;-62
2022/08/28 08:43:30;;;;;;;5.45;4.45;;;;;;;21.23;100.00;100498.78;5027683;28;20500;-61
2022/08/28 08:45:55;;;;;;;6.38;4.25;;;;;;;21.25;100.00;100494.88;5025322;28;20052;-61
2022/08/28 08:48:43;;;;;;;6.20;4.95;;;;;;;21.26;100.00;100496.50;5020123;28;20406;-60
2022/08/28 08:51:26;;;;;;;9.98;5.22;;;;;;;21.34;100.00;100498.88;5027085;28;20041;-62
2022/08/28 08:54:24;;;;;;;7.82;4.60;;;;;;;21.25;100.00;100504.69;5025059;28;20083;-62
2022/08/28 08:56:53;;;;;;;7.90;5.55;;;;;;;21.30;100.00;100502.97;4986067;28;20045;-60
2022/08/28 08:59:22;;;;;;;8.93;5.47;;;;;;;21.41;100.00;100504.94;5027148;28;20144;-61
2022/08/28 09:02:13;;;;;;;6.68;5.97;;;;;;;21.54;100.00;100506.72;5010376;28;20188;-60
2022/08/28 09:04:41;;;;;;;7.70;5.00;;;;;;;21.61;100.00;100499.53;5016322;28;20399;-61
2022/08/28 09:07:14;;;;;;;6.80;5.05;;;;;;;21.62;100.00;100500.34;5012685;28;20034;-61
2022/08/28 09:09:49;;;;;;;6.75;5.15;;;;;;;21.66;100.00;100502.34;5030579;28;20196;-61
2022/08/28 09:12:27;;;;;;;7.28;5.45;;;;;;;21.74;100.00;100502.03;5030585;28;20096;-60
2022/08/28 09:15:03;;;;;;;8.32;5.40;;;;;;;22.11;100.00;100499.53;5028438;28;20473;-61
2022/08/28 09:17:36;;;;;;;5.90;5.30;;;;;;;22.40;100.00;100498.78;5012350;28;20077;-60
2022/08/28 09:20:08;;;;;;;8.38;5.55;;;;;;;22.60;100.00;100498.56;5004185;28;20037;-60
2022/08/28 09:22:36;;;;;;;5.85;4.95;;;;;;;23.03;100.00;100495.00;5010799;28;20041;-61
2022/08/28 09:25:02;;;;;;;5.38;4.57;;;;;;;23.15;100.00;100490.53;5011244;28;20034;-61
2022/08/28 09:27:30;;;;;;;5.97;4.38;;;;;;;23.17;100.00;100493.75;5030350;28;20041;-61
2022/08/28 09:30:04;;;;;;;5.28;4.43;;;;;;;23.22;100.00;100487.75;5012006;28;20116;-60
2022/08/28 09:32:40;;;;;;;5.88;5.00;;;;;;;23.34;100.00;100492.06;5028455;28;20037;-61
2022/08/28 09:35:28;;;;;;;7.60;4.72;;;;;;;23.24;99.22;100488.34;5000208;28;20485;-61
2022/08/28 09:37:55;;;;;;;5.93;5.25;;;;;;;23.27;100.00;100483.38;5030131;28;20087;-61
2022/08/28 09:43:26;;;;;;;8.60;4.95;;;;;;;23.31;96.16;100468.59;5028873;28;20087;-61
2022/08/28 09:45:57;;;;;;;5.45;4.70;;;;;;;23.39;97.74;100470.94;5029596;28;20037;-60
2022/08/28 09:48:28;;;;;;;6.70;5.50;;;;;;;23.48;97.10;100472.22;5028965;28;20087;-62
2022/08/28 09:51:04;;;;;;;7.43;5.85;;;;;;;23.44;99.60;100476.38;5010049;28;20042;-60
2022/08/28 09:53:31;;;;;;;;;;;;;;;23.52;92.78;100482.41;5015186;28;20099;-62
2022/08/28 09:56:05;;;;;;;6.60;5.57;;;;;;;23.69;99.58;100478.03;5027648;28;19924;-60
2022/08/28 09:58:41;;;;;;;7.03;4.80;;;;;;;23.72;100.00;100473.09;5029572;28;20034;-61
2022/08/28 10:01:26;;;;;;;5.28;4.82;;;;;;;23.62;100.00;100470.22;5028594;28;20041;-65
2022/08/28 10:04:03;;;;;;;5.45;4.55;;;;;;;23.54;97.82;100472.38;5028021;28;20037;-62
2022/08/28 10:06:32;;;;;;;5.63;5.13;;;;;;;23.45;100.00;100464.72;5028743;28;20516;-66
2022/08/28 10:09:00;;;;;;;7.47;5.53;;;;;;;23.37;100.00;100477.53;5029240;28;20072;-61
2022/08/28 10:12:04;;;;;;;6.53;5.90;;;;;;;23.31;100.00;100473.13;5029060;28;20066;-65
2022/08/28 10:14:42;;;;;;;6.90;5.32;;;;;;;23.26;100.00;100473.78;5027968;28;20038;-66
2022/08/28 10:17:52;;;;;;;10.48;5.25;;;;;;;23.26;100.00;100486.28;5020073;28;20050;-62
2022/08/28 10:20:40;;;;;;;7.15;5.50;;;;;;;23.29;100.00;100480.50;4992540;28;20557;-62
2022/08/28 10:23:06;;;;;;;5.90;5.40;;;;;;;23.33;100.00;100485.13;5007653;28;20111;-64
2022/08/28 10:26:06;;;;;;;6.78;5.28;;;;;;;23.34;100.00;100483.28;5008381;28;20030;-64
2022/08/28 10:28:44;;;;;;;5.95;5.00;;;;;;;23.34;100.00;100489.41;5001291;28;20153;-62
2022/08/28 10:31:21;;;;;;;7.55;4.82;;;;;;;23.34;100.00;100486.75;5027048;28;20029;-62
2022/08/28 10:34:03;;;;;;;5.53;5.05;;;;;;;23.39;100.00;100486.06;5026374;28;20037;-65
2022/08/28 10:36:30;;;;;;;5.35;4.85;;;;;;;23.52;100.00;100477.91;5009914;28;20037;-62
2022/08/28 10:39:12;;;;;;;8.18;6.00;;;;;;;23.77;100.00;100480.38;5027735;28;20029;-63
2022/08/28 10:41:47;;;;;;;8.75;5.43;;;;;;;24.08;100.00;100490.69;5027561;28;20025;-64
2022/08/28 10:44:21;;;;;;;7.57;4.75;;;;;;;24.32;100.00;100490.66;5008818;28;20029;-66
2022/08/28 10:46:55;;;;;;;5.35;4.07;;;;;;;24.50;100.00;100485.19;5008219;28;20038;-61
2022/08/28 10:49:30;;;;;;;7.15;4.22;;;;;;;24.48;99.11;100489.97;5019610;28;20037;-61
2022/08/28 10:52:22;;;;;;;3.17;2.88;;;;;;;24.44;95.36;100496.78;5027590;28;20037;-64
2022/08/28 10:55:06;;;;;;;4.15;3.20;;;;;;;24.34;96.27;100501.91;5026816;28;20575;-62
2022/08/28 10:57:44;;;;;;;3.45;2.35;;;;;;;24.12;98.34;100510.44;5027586;28;20110;-62
2022/08/28 11:00:20;;;;;;;3.78;2.20;;;;;;;23.93;99.40;100511.63;5027337;28;20025;-63
2022/08/28 11:02:56;;;;;;;4.57;1.92;;;;;;;23.74;97.71;100504.78;5027642;28;20033;-63
2022/08/28 11:05:35;;;;;;;4.60;2.92;;;;;;;23.64;98.98;100504.53;5009062;28;20037;-67
2022/08/28 11:08:23;;;;;;;3.80;2.33;;;;;;;23.47;97.16;100502.53;5010611;28;20044;-65
2022/08/28 11:10:51;;;;;;;4.28;3.10;;;;;;;23.39;98.61;100492.22;5027507;28;20026;-62
2022/08/28 11:13:38;;;;;;;2.83;2.60;;;;;;;23.30;99.66;100492.75;5009598;28;20068;-62
2022/08/28 11:16:45;;;;;;;2.78;2.28;;;;;;;23.18;96.59;100487.41;4982589;28;1268415;-65
2022/08/28 11:19:16;;;;;;;;;;;;;;;23.07;94.61;100498.81;4946722;29;20051;-63
2022/08/28 11:22:11;;;;;;;4.95;2.78;;;;;;;22.97;100.00;100499.34;4946541;29;20016;-65
2022/08/28 11:24:37;;;;;;;3.20;2.88;;;;;;;22.91;100.00;100499.44;4946032;29;20078;-65
2022/08/28 11:27:18;;;;;;;5.97;3.13;;;;;;;22.86;100.00;100502.78;4947439;29;20066;-63
2022/08/28 11:30:08;;;;;;;4.13;3.40;;;;;;;22.81;100.00;100500.78;4947236;29;20072;-60
2022/08/28 11:32:34;;;;;;;4.70;3.38;;;;;;;22.77;100.00;100510.19;4945911;29;20045;-65
2022/08/28 11:35:03;;;;;;;4.72;3.53;;;;;;;22.78;100.00;100500.38;4946367;29;20023;-61
2022/08/28 11:37:51;;;;;;;7.70;3.10;;;;;;;22.83;100.00;100503.22;4946950;29;20403;-65
2022/08/28 11:40:42;;;;;;;5.40;3.95;;;;;;;22.86;100.00;100504.63;4946515;29;20043;-64
2022/08/28 11:43:13;;;;;;;4.20;2.88;;;;;;;22.89;100.00;100499.66;4930381;29;20054;-63
2022/08/28 11:45:42;;;;;;;4.00;3.05;;;;;;;22.91;100.00;100496.78;4932069;29;20158;-60
2022/08/28 11:48:34;;;;;;;4.80;3.35;;;;;;;22.88;100.00;100500.69;4931597;29;20040;-64
2022/08/28 11:51:03;;;;;;;3.22;2.63;;;;;;;22.92;100.00;100504.53;4970530;28;20037;-65
2022/08/28 11:54:07;;;;;;;5.18;3.10;;;;;;;22.96;100.00;100503.06;5031810;28;20059;-60
2022/08/28 11:56:48;;;;;;;4.20;3.00;;;;;;;23.02;100.00;100498.69;4980972;28;20037;-63
2022/08/28 11:59:35;;;;;;;5.15;2.45;;;;;;;23.09;100.00;100504.72;5031733;28;20506;-62